Time;durP1;ratioP1;P1;durP2;ratioP2;P2;SDS_P1;SDS_P2;PMS_P1;PMS_P2;Temp;Humidity;BMP_temperature;BMP_pressure;BME280_temperature;BME280_humidity;BME280_pressure;Samples;Min_cycle;Max_cycle;Signal;HPM_P1;HPM_P2
2022/07/16 00:01:25;;;;;;;;;;;;;;;-144.99;100.00;52276.88;5064144;28;20369;-72
2022/07/16 00:03:53;;;;;;;;;;;;;;;-144.99;100.00;52248.34;5061863;28;19932;-76
2022/07/16 00:06:19;;;;;;;;;;;;;;;-144.99;100.00;52297.25;5070901;28;19932;-76
2022/07/16 00:08:46;;;;;;;;;;;;;;;-144.99;100.00;52280.97;5068668;28;19978;-76
2022/07/16 00:11:12;;;;;;;;;;;;;;;-144.99;100.00;52276.88;5068133;28;19928;-76
2022/07/16 00:13:39;;;;;;;;;;;;;;;-144.99;100.00;52276.88;5065550;28;19925;-78
2022/07/16 00:16:07;;;;;;;;;;;;;;;-144.99;100.00;52276.88;5068481;28;19924;-76
2022/07/16 00:21:19;;;;;;;;;;;;;;;-144.99;100.00;52305.41;5060957;28;20244;-78
2022/07/16 00:23:45;;;;;;;;;;;;;;;-144.99;100.00;52264.66;5062490;28;20346;-79
2022/07/16 00:26:12;;;;;;;;;;;;;;;-144.99;100.00;52280.97;5067326;28;19936;-77
2022/07/16 00:28:38;;;;;;;;;;;;;;;-144.99;100.00;52280.97;5068257;28;20039;-76
2022/07/16 00:31:05;;;;;;;;;;;;;;;-144.99;100.00;52285.03;5066455;28;19939;-78
2022/07/16 00:33:31;;;;;;;;;;;;;;;-144.99;100.00;52270.78;5071657;28;20361;-76
2022/07/16 00:35:59;;;;;;;;;;;;;;;-144.99;100.00;52268.72;5074003;28;19982;-75
2022/07/16 00:38:26;;;;;;;;;;;;;;;-144.99;100.00;52260.56;5073682;28;19962;-76
2022/07/16 00:40:52;;;;;;;;;;;;;;;-144.99;100.00;52280.97;5077014;28;20041;-77
2022/07/16 00:43:19;;;;;;;;;;;;;;;-144.99;100.00;52248.34;5082896;28;19924;-80
2022/07/16 00:45:45;;;;;;;;;;;;;;;-144.99;100.00;52293.19;5085206;28;19924;-74
2022/07/16 00:48:12;;;;;;;;;;;;;;;-144.99;100.00;52260.56;5071535;28;19970;-73
2022/07/16 00:50:39;;;;;;;;;;;;;;;-144.99;100.00;52276.88;5070216;28;19931;-74
2022/07/16 00:53:09;;;;;;;;;;;;;;;-144.99;100.00;52244.28;5067842;28;19933;-75
2022/07/16 00:55:35;;;;;;;;;;;;;;;-144.99;100.00;52260.56;5064563;28;19924;-73
2022/07/16 00:58:02;;;;;;;;;;;;;;;-144.99;100.00;52266.69;5067131;28;19998;-73
2022/07/16 01:00:29;;;;;;;;;;;;;;;-144.99;100.00;52252.44;5069380;28;19928;-71
2022/07/16 01:02:56;;;;;;;;;;;;;;;-144.99;100.00;52278.91;5068393;28;19925;-72
2022/07/16 01:05:22;;;;;;;;;;;;;;;-144.99;100.00;52260.56;5067292;28;19928;-71
2022/07/16 01:07:49;;;;;;;;;;;;;;;-144.99;100.00;52270.78;5068224;28;19974;-72
2022/07/16 01:10:18;;;;;;;;;;;;;;;-144.99;100.00;52276.88;5068932;28;19924;-72
2022/07/16 01:12:46;;;;;;;;;;;;;;;-144.99;100.00;52299.31;5065214;28;20271;-71
2022/07/16 01:15:12;;;;;;;;;;;;;;;-144.99;100.00;52264.66;5068677;28;20027;-72
2022/07/16 01:17:39;;;;;;;;;;;;;;;-144.99;100.00;52289.13;5068963;28;19978;-74
2022/07/16 01:20:07;;;;;;;;;;;;;;;-144.99;100.00;52313.56;5069096;28;19928;-71
2022/07/16 01:22:34;;;;;;;;;;;;;;;-144.99;100.00;52258.53;5066519;28;20275;-72
2022/07/16 01:25:01;;;;;;;;;;;;;;;-144.99;100.00;52256.50;5069130;28;19929;-69
2022/07/16 01:27:28;;;;;;;;;;;;;;;-144.99;100.00;52227.97;5067760;28;20015;-70
2022/07/16 01:29:55;;;;;;;;;;;;;;;-144.99;100.00;52276.88;5068030;28;19932;-72
2022/07/16 01:32:21;;;;;;;;;;;;;;;-144.99;100.00;52301.34;5067290;28;19933;-67
2022/07/16 01:34:47;;;;;;;;;;;;;;;-144.99;100.00;52236.13;5068230;28;19928;-71
2022/07/16 01:37:15;;;;;;;;;;;;;;;-144.99;100.00;52252.44;5068295;28;19933;-72
2022/07/16 01:39:41;;;;;;;;;;;;;;;-144.99;100.00;52293.19;5067402;28;20553;-70
2022/07/16 01:42:10;;;;;;;;;;;;;;;-144.99;100.00;52252.44;5066428;28;20465;-70
2022/07/16 01:44:37;;;;;;;;;;;;;;;-144.99;100.00;52289.13;5067401;28;19929;-72
2022/07/16 01:47:05;;;;;;;;;;;;;;;-144.99;100.00;52309.50;5068299;28;19924;-73
2022/07/16 01:49:33;;;;;;;;;;;;;;;-144.99;100.00;52244.28;5066248;28;20397;-72
2022/07/16 01:52:04;;;;;;;;;;;;;;;-144.99;100.00;52266.69;5065798;28;19994;-72
2022/07/16 01:54:30;;;;;;;;;;;;;;;-144.99;100.00;52252.44;5064486;28;19955;-71
2022/07/16 01:56:57;;;;;;;;;;;;;;;-144.99;100.00;52268.72;5067137;28;19928;-72
2022/07/16 01:59:24;;;;;;;;;;;;;;;-144.99;100.00;52250.38;5062479;28;19924;-71
2022/07/16 02:01:51;;;;;;;;;;;;;;;-144.99;100.00;52264.66;5060169;28;19924;-72
2022/07/16 02:04:17;;;;;;;;;;;;;;;-144.99;100.00;52219.81;5065722;23;19982;-72
2022/07/16 02:06:44;;;;;;;;;;;;;;;-144.99;100.00;52260.56;5057080;28;19924;-72
2022/07/16 02:09:10;;;;;;;;;;;;;;;-144.99;100.00;52246.31;5046838;28;19986;-71
2022/07/16 02:11:37;;;;;;;;;;;;;;;-144.99;100.00;52266.69;5046626;28;19925;-71
2022/07/16 02:14:03;;;;;;;;;;;;;;;-144.99;100.00;52219.81;5046817;28;19964;-74
2022/07/16 02:16:31;;;;;;;;;;;;;;;-144.99;100.00;52264.66;5048965;28;20541;-74
2022/07/16 02:18:58;;;;;;;;;;;;;;;-144.99;100.00;52264.66;5048763;28;19929;-74
2022/07/16 02:21:24;;;;;;;;;;;;;;;-144.99;100.00;52264.66;5046858;28;19928;-71
2022/07/16 02:23:51;;;;;;;;;;;;;;;-144.99;100.00;52254.47;5047172;28;19931;-72
2022/07/16 02:26:18;;;;;;;;;;;;;;;-144.99;100.00;52276.88;5047960;28;20412;-71
2022/07/16 02:28:44;;;;;;;;;;;;;;;-144.99;100.00;52260.56;5045780;28;19929;-71
2022/07/16 02:31:11;;;;;;;;;;;;;;;-144.99;100.00;52289.13;5043654;28;19932;-71
2022/07/16 02:33:39;;;;;;;;;;;;;;;-144.99;100.00;52244.28;5047070;28;19967;-73
2022/07/16 02:36:05;;;;;;;;;;;;;;;-144.99;100.00;52260.56;5048540;28;20359;-72
2022/07/16 02:38:32;;;;;;;;;;;;;;;-144.99;100.00;52280.97;5047158;28;19925;-72
2022/07/16 02:40:58;;;;;;;;;;;;;;;-144.99;100.00;52246.31;5047506;28;19932;-72
2022/07/16 02:43:25;;;;;;;;;;;;;;;-144.99;100.00;52270.78;5043796;28;19998;-70
2022/07/16 02:45:51;;;;;;;;;;;;;;;-144.99;100.00;52244.28;5048523;28;19925;-71
2022/07/16 02:48:18;;;;;;;;;;;;;;;-144.99;100.00;52232.03;5047958;28;19968;-72
2022/07/16 02:50:46;;;;;;;;;;;;;;;-144.99;100.00;52268.72;5048259;28;19979;-73
2022/07/16 02:53:13;;;;;;;;;;;;;;;-144.99;100.00;52268.72;5041512;28;19928;-71
2022/07/16 02:55:39;;;;;;;;;;;;;;;-144.99;100.00;52268.72;5047715;28;19987;-71
2022/07/16 02:58:06;;;;;;;;;;;;;;;-144.99;100.00;52240.19;5045718;28;19925;-72
2022/07/16 03:00:32;;;;;;;;;;;;;;;-144.99;100.00;52256.50;5048082;28;19955;-71
2022/07/16 03:02:59;;;;;;;;;;;;;;;-144.99;100.00;52234.09;5044910;28;19936;-71
2022/07/16 03:05:26;;;;;;;;;;;;;;;-144.99;100.00;52280.97;5047460;28;19936;-71
2022/07/16 03:07:54;;;;;;;;;;;;;;;-144.99;100.00;52264.66;5046925;28;20010;-72
2022/07/16 03:10:20;;;;;;;;;;;;;;;-144.99;100.00;52258.53;5041750;28;19944;-71
2022/07/16 03:12:47;;;;;;;;;;;;;;;-144.99;100.00;52256.50;5045191;28;19925;-70
2022/07/16 03:15:13;;;;;;;;;;;;;;;-144.99;100.00;52264.66;5049934;28;19932;-71
2022/07/16 03:17:40;;;;;;;;;;;;;;;-144.99;100.00;52287.06;5047302;28;19925;-71
2022/07/16 03:20:07;;;;;;;;;;;;;;;-144.99;100.00;52285.03;5046670;28;19990;-70
2022/07/16 03:22:34;;;;;;;;;;;;;;;-144.99;100.00;52260.56;5045735;28;19925;-73
2022/07/16 03:25:02;;;;;;;;;;;;;;;-144.99;100.00;52248.34;5046799;28;19929;-72
2022/07/16 03:27:28;;;;;;;;;;;;;;;-144.99;100.00;52262.63;5043898;28;19932;-73
2022/07/16 03:29:55;;;;;;;;;;;;;;;-144.99;100.00;52256.50;5046491;28;20131;-72
2022/07/16 03:32:21;;;;;;;;;;;;;;;-144.99;100.00;52252.44;5044675;28;20643;-71
2022/07/16 03:34:48;;;;;;;;;;;;;;;-144.99;100.00;52268.72;5047160;28;19925;-73
2022/07/16 03:37:14;;;;;;;;;;;;;;;-144.99;100.00;52252.44;5052049;28;20003;-72
2022/07/16 03:39:41;;;;;;;;;;;;;;;-144.99;100.00;52256.50;5047362;28;19929;-71
2022/07/16 03:42:09;;;;;;;;;;;;;;;-144.99;100.00;52256.50;5043485;28;19978;-72
2022/07/16 03:44:35;;;;;;;;;;;;;;;-144.99;100.00;52266.69;5046548;28;19936;-72
2022/07/16 03:47:02;;;;;;;;;;;;;;;-144.99;100.00;52238.16;5047335;28;20426;-70
2022/07/16 03:49:28;;;;;;;;;;;;;;;-144.99;100.00;52280.97;5046930;28;19924;-71
2022/07/16 03:51:55;;;;;;;;;;;;;;;-144.99;100.00;52256.50;5044199;28;20083;-70
2022/07/16 03:54:21;;;;;;;;;;;;;;;-144.99;100.00;52260.56;5046497;28;19933;-70
2022/07/16 03:56:48;;;;;;;;;;;;;;;-144.99;100.00;52252.44;5046615;28;19926;-70
2022/07/16 03:59:16;;;;;;;;;;;;;;;-144.99;100.00;52252.44;5046296;28;19925;-73
2022/07/16 04:01:42;;;;;;;;;;;;;;;-144.99;100.00;52221.84;5046461;28;20179;-72
2022/07/16 04:04:09;;;;;;;;;;;;;;;-144.99;100.00;52283.00;5051647;28;20293;-72
2022/07/16 04:06:35;;;;;;;;;;;;;;;-144.99;100.00;52285.03;5050519;28;19929;-73
2022/07/16 04:09:02;;;;;;;;;;;;;;;-144.99;100.00;52289.13;5052791;28;19924;-73
2022/07/16 04:11:29;;;;;;;;;;;;;;;-144.99;100.00;52248.34;5051825;28;20323;-72
2022/07/16 04:13:55;;;;;;;;;;;;;;;-144.99;100.00;52285.03;5051238;28;19929;-73
2022/07/16 04:16:23;;;;;;;;;;;;;;;-144.99;100.00;52280.97;5053422;28;19979;-72
2022/07/16 04:18:50;;;;;;;;;;;;;;;-144.99;100.00;52313.56;5053266;28;19932;-73
2022/07/16 04:21:16;;;;;;;;;;;;;;;-144.99;100.00;52289.13;5050890;28;19933;-74
2022/07/16 04:23:43;;;;;;;;;;;;;;;-144.99;100.00;52280.97;5051991;28;19925;-74
2022/07/16 04:26:09;;;;;;;;;;;;;;;-144.99;100.00;52266.69;5052791;28;19924;-75
2022/07/16 04:28:36;;;;;;;;;;;;;;;-144.99;100.00;52264.66;5052831;28;20025;-74
2022/07/16 04:31:02;;;;;;;;;;;;;;;-144.99;100.00;52280.97;5052467;28;19932;-73
2022/07/16 04:33:30;;;;;;;;;;;;;;;-144.99;100.00;52268.72;5055368;28;19925;-73
2022/07/16 04:35:56;;;;;;;;;;;;;;;-144.99;100.00;52264.66;5054908;28;20015;-74
2022/07/16 04:38:23;;;;;;;;;;;;;;;-144.99;100.00;52272.81;5052663;28;19975;-74
2022/07/16 04:40:50;;;;;;;;;;;;;;;-144.99;100.00;52280.97;5051909;28;20060;-75
2022/07/16 04:43:16;;;;;;;;;;;;;;;-144.99;100.00;52236.13;5048894;28;19932;-74
2022/07/16 04:45:43;;;;;;;;;;;;;;;-144.99;100.00;52244.28;5053484;28;19929;-75
2022/07/16 04:48:09;;;;;;;;;;;;;;;-144.99;100.00;52236.13;5053145;28;19967;-74
2022/07/16 04:50:37;;;;;;;;;;;;;;;-144.99;100.00;52260.56;5052653;28;19925;-74
2022/07/16 04:53:04;;;;;;;;;;;;;;;-144.99;100.00;52248.34;5048109;28;20372;-75
2022/07/16 04:55:30;;;;;;;;;;;;;;;-144.99;100.00;52260.56;5052645;28;19925;-75
2022/07/16 04:57:57;;;;;;;;;;;;;;;-144.99;100.00;52244.28;5050459;28;20300;-74
2022/07/16 05:00:23;;;;;;;;;;;;;;;-144.99;100.00;52266.69;5055576;28;19990;-73
2022/07/16 05:02:59;;;;;;;;;;;;;;;-144.99;100.00;52262.63;5053588;28;19925;-73
2022/07/16 05:05:26;;;;;;;;;;;;;;;-144.99;100.00;52254.47;5056227;28;19933;-73
2022/07/16 05:07:54;;;;;;;;;;;;;;;-144.99;100.00;52264.66;5056552;28;20517;-71
2022/07/16 05:10:21;;;;;;;;;;;;;;;-144.99;100.00;52278.91;5051178;28;20002;-74
2022/07/16 05:12:48;;;;;;;;;;;;;;;-144.99;100.00;52258.53;5053497;28;20043;-73
2022/07/16 05:15:15;;;;;;;;;;;;;;;-144.99;100.00;52293.19;5056029;28;19932;-73
2022/07/16 05:17:41;;;;;;;;;;;;;;;-144.99;100.00;52291.16;5053886;28;19935;-72
2022/07/16 05:20:09;;;;;;;;;;;;;;;-144.99;100.00;52268.72;5051569;28;19970;-73
2022/07/16 05:22:35;;;;;;;;;;;;;;;-144.99;100.00;52244.28;5052056;28;19928;-72
2022/07/16 05:25:03;;;;;;;;;;;;;;;-144.99;100.00;52270.78;5056599;28;19928;-72
2022/07/16 05:27:30;;;;;;;;;;;;;;;-144.99;100.00;52280.97;5052734;28;19931;-72
2022/07/16 05:29:57;;;;;;;;;;;;;;;-144.99;100.00;52264.66;5050068;28;19942;-73
2022/07/16 05:32:23;;;;;;;;;;;;;;;-144.99;100.00;52227.97;5049867;28;19965;-71
2022/07/16 05:34:50;;;;;;;;;;;;;;;-144.99;100.00;52232.03;5052766;28;19925;-72
2022/07/16 05:37:16;;;;;;;;;;;;;;;-144.99;100.00;52272.81;5049947;28;20226;-72
2022/07/16 05:39:43;;;;;;;;;;;;;;;-144.99;100.00;52248.34;5053240;28;20051;-73
2022/07/16 05:42:11;;;;;;;;;;;;;;;-144.99;100.00;52256.50;5049876;28;19925;-74
2022/07/16 05:44:37;;;;;;;;;;;;;;;-144.99;100.00;52297.25;5050760;28;19936;-74
2022/07/16 05:47:04;;;;;;;;;;;;;;;-144.99;100.00;52215.75;5052555;28;19928;-71
2022/07/16 05:49:31;;;;;;;;;;;;;;;-144.99;100.00;52248.34;5051044;28;19925;-72
2022/07/16 05:51:57;;;;;;;;;;;;;;;-144.99;99.97;52227.97;5050587;28;20430;-73
2022/07/16 05:54:24;;;;;;;;;;;;;;;-144.99;98.73;52240.19;5050756;28;20383;-72
2022/07/16 05:56:50;;;;;;;;;;;;;;;-144.99;97.46;52256.50;5050250;28;19931;-73
2022/07/16 05:59:18;;;;;;;;;;;;;;;-144.99;97.15;52260.56;5047628;28;19928;-74
2022/07/16 06:01:45;;;;;;;;;;;;;;;-144.99;96.62;52262.63;5048296;28;19925;-72
2022/07/16 06:04:11;;;;;;;;;;;;;;;-144.99;96.45;52236.13;5048629;28;20171;-72
2022/07/16 06:06:38;;;;;;;;;;;;;;;-144.99;95.02;52238.16;5048651;28;19925;-74
2022/07/16 06:09:04;;;;;;;;;;;;;;;-144.99;93.45;52225.94;5045416;28;20013;-72
2022/07/16 06:11:31;;;;;;;;;;;;;;;-144.99;91.76;52236.13;5046480;28;19932;-72
2022/07/16 06:13:58;;;;;;;;;;;;;;;-144.99;89.72;52203.50;5046214;28;20403;-72
2022/07/16 06:16:26;;;;;;;;;;;;;;;-144.99;87.83;52203.50;5048592;28;19951;-73
2022/07/16 06:18:53;;;;;;;;;;;;;;;-144.99;85.25;52211.66;5046749;28;19929;-73
2022/07/16 06:21:20;;;;;;;;;;;;;;;-144.99;84.07;52250.38;5048858;28;19947;-73
2022/07/16 06:23:47;;;;;;;;;;;;;;;-144.99;83.69;52244.28;5047042;28;19929;-73
2022/07/16 06:26:13;;;;;;;;;;;;;;;-144.99;83.01;52223.88;5047479;28;20002;-73
2022/07/16 06:28:40;;;;;;;;;;;;;;;-144.99;81.03;52260.56;5045790;28;19971;-73
2022/07/16 06:31:06;;;;;;;;;;;;;;;-144.99;79.26;52211.66;5043992;28;19924;-74
2022/07/16 06:33:34;;;;;;;;;;;;;;;-144.99;77.25;52252.44;5047101;28;20281;-73
2022/07/16 06:36:01;;;;;;;;;;;;;;;-144.99;75.98;52219.81;5047334;28;19990;-72
2022/07/16 06:38:27;;;;;;;;;;;;;;;-144.99;75.82;52242.22;5047086;28;19932;-72
2022/07/16 06:40:54;;;;;;;;;;;;;;;-144.99;76.22;52232.03;5047022;28;19960;-72
2022/07/16 06:43:20;;;;;;;;;;;;;;;-144.99;76.68;52240.19;5046209;28;19929;-70
2022/07/16 06:45:47;;;;;;;;;;;;;;;-144.99;74.80;52244.28;5050046;28;19955;-72
2022/07/16 06:48:13;;;;;;;;;;;;;;;-144.99;71.88;52213.69;5049000;28;19925;-73
2022/07/16 06:50:41;;;;;;;;;;;;;;;-144.99;70.03;52256.50;5046241;28;19967;-73
2022/07/16 06:53:08;;;;;;;;;;;;;;;-144.99;69.45;52219.81;5046776;28;20027;-74
2022/07/16 06:55:34;;;;;;;;;;;;;;;-144.99;68.82;52219.81;5047538;28;19929;-73
2022/07/16 06:58:01;;;;;;;;;;;;;;;-144.99;68.21;52236.13;5048608;28;19925;-74
2022/07/16 07:00:27;;;;;;;;;;;;;;;-144.99;68.09;52252.44;5046783;28;19939;-74
2022/07/16 07:02:54;;;;;;;;;;;;;;;-144.99;66.82;52203.50;5046416;28;19982;-73
2022/07/16 07:05:20;;;;;;;;;;;;;;;-144.99;66.57;52236.13;5047497;28;20218;-72
2022/07/16 07:07:48;;;;;;;;;;;;;;;-144.99;66.40;52215.75;5041920;28;20342;-72
2022/07/16 07:10:15;;;;;;;;;;;;;;;-144.99;66.11;52250.38;5042487;28;20342;-73
2022/07/16 07:12:41;;;;;;;;;;;;;;;-144.99;65.08;52187.19;5043200;28;19990;-72
2022/07/16 07:15:09;;;;;;;;;;;;;;;-144.99;65.16;52179.06;5046436;28;19974;-74
2022/07/16 07:17:36;;;;;;;;;;;;;;;-144.99;64.21;52215.75;5043477;28;20013;-75
2022/07/16 07:20:02;;;;;;;;;;;;;;;-144.99;62.15;52195.34;5047661;28;19963;-73
2022/07/16 07:22:29;;;;;;;;;;;;;;;-144.99;60.31;52197.41;5045892;28;19960;-74
2022/07/16 07:24:57;;;;;;;;;;;;;;;-144.99;60.88;52248.34;5046444;28;19924;-73
2022/07/16 07:27:23;;;;;;;;;;;;;;;-144.99;59.06;52205.53;5043828;28;19928;-73
2022/07/16 07:29:50;;;;;;;;;;;;;;;-144.99;58.64;52209.63;5039840;28;19928;-72
2022/07/16 07:32:16;;;;;;;;;;;;;;;-144.99;58.34;52227.97;5045631;28;19990;-73
2022/07/16 07:34:43;;;;;;;;;;;;;;;-144.99;55.96;52213.69;5046470;28;19925;-74
2022/07/16 07:37:09;;;;;;;;;;;;;;;-144.99;55.11;52211.66;5044774;28;19998;-74
2022/07/16 07:39:36;;;;;;;;;;;;;;;-144.99;54.66;52191.28;5045392;28;20288;-74
2022/07/16 07:42:05;;;;;;;;;;;;;;;-144.99;54.60;52219.81;5046972;28;20874;-74
2022/07/16 07:44:31;;;;;;;;;;;;;;;-144.99;54.34;52236.13;5047583;28;20008;-73
2022/07/16 07:46:57;;;;;;;;;;;;;;;-144.99;54.77;52185.16;5047011;28;20411;-73
2022/07/16 07:49:24;;;;;;;;;;;;;;;-144.99;54.61;52191.28;5046802;28;19932;-73
2022/07/16 07:51:51;;;;;;;;;;;;;;;-144.99;54.49;52199.44;5047856;28;19994;-75
2022/07/16 07:54:18;;;;;;;;;;;;;;;-144.99;54.14;52191.28;5048487;28;20446;-73
2022/07/16 07:56:45;;;;;;;;;;;;;;;-144.99;52.94;52142.38;5047248;28;19932;-75
2022/07/16 07:59:13;;;;;;;;;;;;;;;-144.99;52.51;52179.06;5045037;28;19931;-74
2022/07/16 08:01:39;;;;;;;;;;;;;;;-144.99;51.41;52232.03;5046065;28;19921;-74
2022/07/16 08:04:06;;;;;;;;;;;;;;;-144.99;50.24;52203.50;5047335;28;19940;-74
2022/07/16 08:06:32;;;;;;;;;;;;;;;-144.99;49.44;52211.66;5047380;28;19929;-74
2022/07/16 08:08:59;;;;;;;;;;;;;;;-144.99;50.40;52199.44;5044949;28;20024;-73
2022/07/16 08:11:25;;;;;;;;;;;;;;;-144.99;50.65;52164.78;5047122;28;20578;-73
2022/07/16 08:13:52;;;;;;;;;;;;;;;-144.99;50.60;52219.81;5044988;28;19978;-74
2022/07/16 08:16:20;;;;;;;;;;;;;;;-144.99;51.01;52225.94;5087964;23;19931;-73
2022/07/16 08:18:46;;;;;;;;;;;;;;;-144.99;48.26;52219.81;5030895;28;19929;-73
2022/07/16 08:21:13;;;;;;;;;;;;;;;-144.99;47.77;52213.69;4993151;28;19937;-72
2022/07/16 08:26:24;;;;;;;;;;;;;;;-144.99;47.90;52158.66;5003623;28;19991;-74
2022/07/16 08:28:51;;;;;;;;;;;;;;;-144.99;46.57;52211.66;5101903;28;19975;-76
2022/07/16 08:31:18;;;;;;;;;;;;;;;-144.99;45.95;52181.09;5104635;28;19924;-73
2022/07/16 08:33:46;;;;;;;;;;;;;;;-144.99;45.83;52207.59;5101958;28;19924;-74
2022/07/16 08:36:12;;;;;;;;;;;;;;;-144.99;45.81;52211.66;5105566;28;19928;-73
2022/07/16 08:38:39;;;;;;;;;;;;;;;-144.99;45.81;52191.28;5104598;28;19928;-73
2022/07/16 08:41:06;;;;;;;;;;;;;;;-144.99;45.68;52191.28;5096091;28;20133;-73
2022/07/16 08:43:33;;;;;;;;;;;;;;;-144.99;45.93;52211.66;5092597;28;19954;-73
2022/07/16 08:46:00;;;;;;;;;;;;;;;-144.99;46.53;52187.19;5083705;28;19935;-72
2022/07/16 08:48:27;;;;;;;;;;;;;;;-144.99;46.52;52215.75;5086428;28;19924;-73
2022/07/16 08:50:55;;;;;;;;;;;;;;;-144.99;47.06;52174.97;5087892;28;19978;-72
2022/07/16 08:53:24;;;;;;;;;;;;;;;-144.99;45.68;52207.59;5088856;28;19924;-72
2022/07/16 08:55:52;;;;;;;;;;;;;;;-144.99;46.15;52166.81;5086347;28;20014;-73
2022/07/16 08:58:19;;;;;;;;;;;;;;;-144.99;46.48;52179.06;5082192;28;20406;-72
2022/07/16 09:00:46;;;;;;;;;;;;;;;-144.99;46.58;52158.66;5088004;28;19965;-72
2022/07/16 09:03:13;;;;;;;;;;;;;;;-144.99;46.07;52181.09;5078865;28;20090;-70
2022/07/16 09:05:39;;;;;;;;;;;;;;;-144.99;46.81;52170.91;5087092;28;19936;-72
2022/07/16 09:08:07;;;;;;;;;;;;;;;-144.99;46.11;52109.75;5089632;28;20310;-72
2022/07/16 09:10:34;;;;;;;;;;;;;;;-144.99;45.55;52191.28;5086861;28;19924;-73
2022/07/16 09:13:01;;;;;;;;;;;;;;;-144.99;45.84;52136.25;5086097;28;20015;-74
2022/07/16 09:15:29;;;;;;;;;;;;;;;-144.99;45.89;52146.44;5085965;28;20441;-72
2022/07/16 09:18:09;;;;;;;;;;;;;;;-144.99;46.24;52158.66;5089161;28;19951;-73
2022/07/16 09:20:36;;;;;;;;;;;;;;;-144.99;45.81;52146.44;5087351;28;20899;-72
2022/07/16 09:23:03;;;;;;;;;;;;;;;-144.99;45.46;52138.28;5088308;28;19969;-73
2022/07/16 09:25:31;;;;;;;;;;;;;;;-144.99;45.59;52126.06;5082284;28;19928;-71
2022/07/16 09:27:58;;;;;;;;;;;;;;;-144.99;45.56;52126.06;5080037;28;20356;-72
2022/07/16 09:30:25;;;;;;;;;;;;;;;-144.99;44.96;52138.28;5084744;28;19928;-72
2022/07/16 09:32:52;;;;;;;;;;;;;;;-144.99;44.50;52177.00;5081475;28;19943;-73
2022/07/16 09:35:18;;;;;;;;;;;;;;;-144.99;44.68;52223.88;5084039;28;20016;-71
2022/07/16 09:37:46;;;;;;;;;;;;;;;-144.99;46.08;52215.75;5082171;28;20249;-71
2022/07/16 09:40:13;;;;;;;;;;;;;;;-144.99;47.91;52191.28;5084942;28;20189;-71
2022/07/16 09:42:41;;;;;;;;;;;;;;;-144.99;49.11;52181.09;5074805;28;20095;-71
2022/07/16 09:45:08;;;;;;;;;;;;;;;-144.99;50.29;52207.59;5080463;28;19968;-70
2022/07/16 09:47:35;;;;;;;;;;;;;;;-144.99;50.40;52236.13;5080907;28;19924;-73
2022/07/16 09:50:02;;;;;;;;;;;;;;;-144.99;50.81;52223.88;5082068;28;20444;-72
2022/07/16 09:52:29;;;;;;;;;;;;;;;-144.99;50.00;52183.13;5081965;28;19933;-71
2022/07/16 09:54:56;;;;;;;;;;;;;;;-144.99;48.28;52203.50;5081767;28;19989;-71
2022/07/16 09:57:25;;;;;;;;;;;;;;;-144.99;46.46;52199.44;5077933;28;19928;-73
2022/07/16 09:59:54;;;;;;;;;;;;;;;-144.99;46.65;52158.66;5083056;28;20047;-72
2022/07/16 10:02:20;;;;;;;;;;;;;;;-144.99;45.86;52152.56;5086462;28;19935;-70
2022/07/16 10:04:47;;;;;;;;;;;;;;;-144.99;46.19;52162.75;5088264;28;19928;-72
2022/07/16 10:07:13;;;;;;;;;;;;;;;-144.99;45.12;52156.63;5089479;28;20154;-72
2022/07/16 10:09:40;;;;;;;;;;;;;;;-144.99;45.03;52166.81;5088837;28;19989;-73
2022/07/16 10:12:08;;;;;;;;;;;;;;;-144.99;45.89;52191.28;5085078;28;20068;-73
2022/07/16 10:14:36;;;;;;;;;;;;;;;-144.99;46.00;52211.66;5083907;28;19992;-71
2022/07/16 10:17:11;;;;;;;;;;;;;;;-144.99;45.83;52166.81;5088329;28;20102;-73
2022/07/16 10:19:38;;;;;;;;;;;;;;;-144.99;46.53;52164.78;5083887;28;20269;-72
2022/07/16 10:22:21;;;;;;;;;;;;;;;-144.99;46.59;52162.75;5084912;28;19943;-74
2022/07/16 10:24:50;;;;;;;;;;;;;;;-144.99;45.88;52079.19;5081234;28;19955;-73
2022/07/16 10:27:17;;;;;;;;;;;;;;;-144.99;45.33;52154.59;5084190;28;20006;-72
2022/07/16 10:29:43;;;;;;;;;;;;;;;-144.99;44.86;52121.97;5085280;28;19924;-71
2022/07/16 10:32:30;;;;;;;;;;;;;;;-144.99;44.33;52081.22;5082930;28;20155;-71
2022/07/16 10:35:00;;;;;;;;;;;;;;;-144.99;43.79;52081.22;5082274;28;19924;-71
2022/07/16 10:37:27;;;;;;;;;;;;;;;-144.99;43.82;52150.53;5079754;28;19928;-72
2022/07/16 10:40:07;;;;;;;;;;;;;;;-144.99;43.42;52166.81;5079996;28;19971;-71
2022/07/16 10:42:35;;;;;;;;;;;;;;;-144.99;43.29;52093.44;5085516;28;19989;-71
2022/07/16 10:45:01;;;;;;;;;;;;;;;-144.99;43.54;52077.16;5082531;28;19924;-73
2022/07/16 10:47:50;;;;;;;;;;;;;;;-144.99;42.89;52073.06;5084511;28;19931;-71
2022/07/16 10:50:18;;;;;;;;;;;;;;;-144.99;42.38;52052.69;5084894;28;20015;-72
2022/07/16 10:52:47;;;;;;;;;;;;;;;-144.99;42.39;52117.91;5089261;28;19976;-71
2022/07/16 10:55:18;;;;;;;;;;;;;;;-144.99;42.09;52140.31;5082458;28;19930;-70
2022/07/16 10:57:45;;;;;;;;;;;;;;;-144.99;42.32;52121.97;5088791;28;19931;-71
2022/07/16 11:00:11;;;;;;;;;;;;;;;-144.99;42.64;52158.66;5086047;28;19963;-71
2022/07/16 11:02:39;;;;;;;;;;;;;;;-144.99;43.39;52138.28;5077337;28;20411;-71
2022/07/16 11:05:07;;;;;;;;;;;;;;;-144.99;42.60;52081.22;5085855;28;19924;-72
2022/07/16 11:07:34;;;;;;;;;;;;;;;-144.99;41.98;52138.28;5082883;28;19976;-71
2022/07/16 11:10:01;;;;;;;;;;;;;;;-144.99;42.33;52036.38;5086442;28;19928;-71
2022/07/16 11:12:30;;;;;;;;;;;;;;;-144.99;41.38;52040.47;5084187;28;19932;-71
2022/07/16 11:14:58;;;;;;;;;;;;;;;-144.99;40.63;52060.84;5086199;28;20075;-73
2022/07/16 11:17:26;;;;;;;;;;;;;;;-144.99;40.52;52016.00;5078175;28;19932;-71
2022/07/16 11:19:55;;;;;;;;;;;;;;;-144.99;39.39;52020.09;5085378;28;20302;-71
2022/07/16 11:22:24;;;;;;;;;;;;;;;-144.99;39.21;52032.31;5079269;28;20038;-72
2022/07/16 11:24:52;;;;;;;;;;;;;;;-144.99;39.01;52026.19;5087263;28;19985;-74
2022/07/16 11:27:18;;;;;;;;;;;;;;;-144.99;39.03;52069.00;5087040;28;20351;-73
2022/07/16 11:29:45;;;;;;;;;;;;;;;-144.99;38.46;52075.09;5085503;28;19924;-71
2022/07/16 11:32:15;;;;;;;;;;;;;;;-144.99;39.15;52101.59;5080614;28;19928;-71
2022/07/16 11:34:41;;;;;;;;;;;;;;;-144.99;37.56;52130.13;5085456;28;19971;-71
2022/07/16 11:37:08;;;;;;;;;;;;;;;-144.99;38.19;52126.06;5087659;28;19932;-72
2022/07/16 11:39:38;;;;;;;;;;;;;;;-144.99;38.90;52130.13;5087464;28;20407;-73
2022/07/16 11:42:04;;;;;;;;;;;;;;;-144.99;38.22;52126.06;5082355;28;19928;-72
2022/07/16 11:44:32;;;;;;;;;;;;;;;-144.99;38.48;52146.44;5085720;28;20011;-73
2022/07/16 11:46:59;;;;;;;;;;;;;;;-144.99;38.00;52140.31;5082791;28;19955;-72
2022/07/16 11:49:27;;;;;;;;;;;;;;;-144.99;38.51;52126.06;5080319;28;20295;-72
2022/07/16 11:51:54;;;;;;;;;;;;;;;-144.99;38.00;52136.25;5086049;28;20003;-72
2022/07/16 11:54:21;;;;;;;;;;;;;;;-144.99;38.67;52134.22;5079072;28;19979;-73
2022/07/16 11:56:49;;;;;;;;;;;;;;;-144.99;39.61;52150.53;5082866;28;19963;-72
2022/07/16 11:59:17;;;;;;;;;;;;;;;-144.99;39.96;52105.69;5080611;28;20365;-72
2022/07/16 12:01:44;;;;;;;;;;;;;;;-144.99;40.52;52187.19;5080502;28;19924;-71
2022/07/16 12:04:10;;;;;;;;;;;;;;;-144.99;40.57;52166.81;5084456;28;19935;-72
2022/07/16 12:06:37;;;;;;;;;;;;;;;-144.99;40.12;52152.56;5081603;28;20459;-71
2022/07/16 12:09:04;;;;;;;;;;;;;;;-144.99;40.51;52199.44;5078215;28;19977;-72
2022/07/16 12:11:31;;;;;;;;;;;;;;;-144.99;40.79;52170.91;5084092;28;19924;-72
2022/07/16 12:14:00;;;;;;;;;;;;;;;-144.99;41.12;52223.88;5077688;28;19932;-72
2022/07/16 12:16:27;;;;;;;;;;;;;;;-144.99;41.10;52183.13;5090281;28;20380;-74
2022/07/16 12:19:00;;;;;;;;;;;;;;;-144.99;40.57;52154.59;5082308;28;19925;-73
2022/07/16 12:21:28;;;;;;;;;;;;;;;-144.99;40.41;52146.44;5076177;28;20483;-73
2022/07/16 12:23:54;;;;;;;;;;;;;;;-144.99;40.10;52170.91;5086290;28;19970;-73
2022/07/16 12:26:27;;;;;;;;;;;;;;;-144.99;39.53;52168.84;5083766;28;19940;-73
2022/07/16 12:28:54;;;;;;;;;;;;;;;-144.99;39.33;52134.22;5090435;28;19975;-73